sensor_id;sensor_type;location;lat;lon;timestamp;P1;durP1;ratioP1;P2;durP2;ratioP2
40601;SDS011;26310;50.278;19.032;2022-08-19T00:02:09;11.23;;;7.40;;
40601;SDS011;26310;50.278;19.032;2022-08-19T00:07:12;15.35;;;8.50;;
40601;SDS011;26310;50.278;19.032;2022-08-19T00:12:14;13.23;;;8.18;;
40601;SDS011;26310;50.278;19.032;2022-08-19T00:17:18;11.38;;;8.27;;
40601;SDS011;26310;50.278;19.032;2022-08-19T00:22:20;12.35;;;9.00;;
40601;SDS011;26310;50.278;19.032;2022-08-19T00:27:23;9.90;;;8.50;;
40601;SDS011;26310;50.278;19.032;2022-08-19T00:32:28;9.38;;;7.70;;
40601;SDS011;26310;50.278;19.032;2022-08-19T00:37:31;17.70;;;8.70;;
40601;SDS011;26310;50.278;19.032;2022-08-19T00:42:34;10.68;;;8.45;;
40601;SDS011;26310;50.278;19.032;2022-08-19T00:47:37;11.65;;;7.78;;
40601;SDS011;26310;50.278;19.032;2022-08-19T00:52:41;12.00;;;8.75;;
40601;SDS011;26310;50.278;19.032;2022-08-19T00:57:52;11.32;;;8.07;;
40601;SDS011;26310;50.278;19.032;2022-08-19T01:03:07;15.15;;;8.43;;
40601;SDS011;26310;50.278;19.032;2022-08-19T01:08:14;14.90;;;8.65;;
40601;SDS011;26310;50.278;19.032;2022-08-19T01:13:19;12.32;;;9.25;;
40601;SDS011;26310;50.278;19.032;2022-08-19T01:18:28;12.20;;;8.55;;
40601;SDS011;26310;50.278;19.032;2022-08-19T01:23:32;11.05;;;8.65;;
40601;SDS011;26310;50.278;19.032;2022-08-19T01:28:48;13.35;;;8.77;;
40601;SDS011;26310;50.278;19.032;2022-08-19T01:33:53;12.38;;;9.27;;
40601;SDS011;26310;50.278;19.032;2022-08-19T01:38:57;11.57;;;9.32;;
40601;SDS011;26310;50.278;19.032;2022-08-19T01:44:00;15.15;;;9.73;;
40601;SDS011;26310;50.278;19.032;2022-08-19T01:49:20;11.25;;;9.18;;
40601;SDS011;26310;50.278;19.032;2022-08-19T01:54:24;12.68;;;8.77;;
40601;SDS011;26310;50.278;19.032;2022-08-19T01:59:28;14.55;;;9.93;;
40601;SDS011;26310;50.278;19.032;2022-08-19T02:04:31;13.52;;;9.93;;
40601;SDS011;26310;50.278;19.032;2022-08-19T02:09:35;14.95;;;9.63;;
40601;SDS011;26310;50.278;19.032;2022-08-19T02:14:38;13.50;;;9.88;;
40601;SDS011;26310;50.278;19.032;2022-08-19T02:19:41;11.70;;;8.77;;
40601;SDS011;26310;50.278;19.032;2022-08-19T02:24:43;12.98;;;10.13;;
40601;SDS011;26310;50.278;19.032;2022-08-19T02:29:46;14.10;;;10.43;;
40601;SDS011;26310;50.278;19.032;2022-08-19T02:34:50;13.70;;;9.88;;
40601;SDS011;26310;50.278;19.032;2022-08-19T02:39:53;15.52;;;10.20;;
40601;SDS011;26310;50.278;19.032;2022-08-19T02:44:56;14.02;;;10.45;;
40601;SDS011;26310;50.278;19.032;2022-08-19T02:50:00;14.07;;;10.10;;
40601;SDS011;26310;50.278;19.032;2022-08-19T02:55:04;16.20;;;10.25;;
40601;SDS011;26310;50.278;19.032;2022-08-19T03:00:08;12.40;;;9.75;;
40601;SDS011;26310;50.278;19.032;2022-08-19T03:05:14;16.00;;;10.20;;
40601;SDS011;26310;50.278;19.032;2022-08-19T03:10:17;14.18;;;10.20;;
40601;SDS011;26310;50.278;19.032;2022-08-19T03:15:19;15.70;;;10.20;;
40601;SDS011;26310;50.278;19.032;2022-08-19T03:20:22;14.02;;;10.70;;
40601;SDS011;26310;50.278;19.032;2022-08-19T03:25:26;14.43;;;10.27;;
40601;SDS011;26310;50.278;19.032;2022-08-19T03:30:29;15.32;;;10.13;;
40601;SDS011;26310;50.278;19.032;2022-08-19T03:35:34;18.40;;;10.02;;
40601;SDS011;26310;50.278;19.032;2022-08-19T03:40:40;13.32;;;10.40;;
40601;SDS011;26310;50.278;19.032;2022-08-19T03:45:44;13.98;;;10.82;;
40601;SDS011;26310;50.278;19.032;2022-08-19T03:50:46;14.95;;;11.10;;
40601;SDS011;26310;50.278;19.032;2022-08-19T03:55:49;16.73;;;10.68;;
40601;SDS011;26310;50.278;19.032;2022-08-19T04:00:52;12.95;;;10.27;;
40601;SDS011;26310;50.278;19.032;2022-08-19T04:05:55;17.05;;;10.75;;
40601;SDS011;26310;50.278;19.032;2022-08-19T04:10:58;15.48;;;10.18;;
40601;SDS011;26310;50.278;19.032;2022-08-19T04:16:01;13.98;;;10.90;;
40601;SDS011;26310;50.278;19.032;2022-08-19T04:21:05;15.20;;;10.10;;
40601;SDS011;26310;50.278;19.032;2022-08-19T04:26:13;15.77;;;11.30;;
40601;SDS011;26310;50.278;19.032;2022-08-19T04:31:24;16.08;;;9.82;;
40601;SDS011;26310;50.278;19.032;2022-08-19T04:36:30;12.02;;;9.88;;
40601;SDS011;26310;50.278;19.032;2022-08-19T04:41:35;13.70;;;9.75;;
40601;SDS011;26310;50.278;19.032;2022-08-19T04:46:57;14.63;;;10.30;;
40601;SDS011;26310;50.278;19.032;2022-08-19T04:52:01;16.55;;;10.38;;
40601;SDS011;26310;50.278;19.032;2022-08-19T04:57:06;13.13;;;10.10;;
40601;SDS011;26310;50.278;19.032;2022-08-19T05:02:11;15.88;;;10.20;;
40601;SDS011;26310;50.278;19.032;2022-08-19T05:07:14;12.25;;;9.93;;
40601;SDS011;26310;50.278;19.032;2022-08-19T05:12:17;15.38;;;9.95;;
40601;SDS011;26310;50.278;19.032;2022-08-19T05:17:20;20.08;;;10.70;;
40601;SDS011;26310;50.278;19.032;2022-08-19T05:22:36;16.08;;;10.30;;
40601;SDS011;26310;50.278;19.032;2022-08-19T05:27:40;13.88;;;10.18;;
40601;SDS011;26310;50.278;19.032;2022-08-19T05:32:43;14.45;;;10.18;;
40601;SDS011;26310;50.278;19.032;2022-08-19T05:37:46;16.60;;;9.98;;
40601;SDS011;26310;50.278;19.032;2022-08-19T05:42:55;12.20;;;8.98;;
40601;SDS011;26310;50.278;19.032;2022-08-19T05:47:59;11.40;;;8.32;;
40601;SDS011;26310;50.278;19.032;2022-08-19T05:53:02;10.63;;;8.82;;
40601;SDS011;26310;50.278;19.032;2022-08-19T05:58:05;12.35;;;9.07;;
40601;SDS011;26310;50.278;19.032;2022-08-19T06:03:09;12.10;;;8.43;;
40601;SDS011;26310;50.278;19.032;2022-08-19T06:08:13;10.55;;;8.00;;
40601;SDS011;26310;50.278;19.032;2022-08-19T06:13:16;9.27;;;7.40;;
40601;SDS011;26310;50.278;19.032;2022-08-19T06:18:20;10.90;;;8.18;;
40601;SDS011;26310;50.278;19.032;2022-08-19T06:23:24;10.77;;;7.30;;
40601;SDS011;26310;50.278;19.032;2022-08-19T06:28:27;13.68;;;8.75;;
40601;SDS011;26310;50.278;19.032;2022-08-19T06:33:30;10.93;;;8.27;;
40601;SDS011;26310;50.278;19.032;2022-08-19T06:38:32;11.55;;;8.55;;
40601;SDS011;26310;50.278;19.032;2022-08-19T06:43:35;10.30;;;8.32;;
40601;SDS011;26310;50.278;19.032;2022-08-19T06:48:42;10.73;;;7.22;;
40601;SDS011;26310;50.278;19.032;2022-08-19T06:53:47;12.77;;;7.70;;
40601;SDS011;26310;50.278;19.032;2022-08-19T06:58:55;9.65;;;7.03;;
40601;SDS011;26310;50.278;19.032;2022-08-19T07:03:58;6.85;;;5.90;;
40601;SDS011;26310;50.278;19.032;2022-08-19T07:09:04;7.05;;;5.32;;
40601;SDS011;26310;50.278;19.032;2022-08-19T07:14:10;8.35;;;6.30;;
40601;SDS011;26310;50.278;19.032;2022-08-19T07:19:20;6.20;;;4.75;;
40601;SDS011;26310;50.278;19.032;2022-08-19T07:24:24;9.52;;;6.50;;
40601;SDS011;26310;50.278;19.032;2022-08-19T07:29:34;5.90;;;5.28;;
40601;SDS011;26310;50.278;19.032;2022-08-19T07:34:38;7.28;;;6.07;;
40601;SDS011;26310;50.278;19.032;2022-08-19T07:39:43;7.15;;;4.82;;
40601;SDS011;26310;50.278;19.032;2022-08-19T07:44:46;6.22;;;5.03;;
40601;SDS011;26310;50.278;19.032;2022-08-19T07:49:51;6.18;;;4.85;;
40601;SDS011;26310;50.278;19.032;2022-08-19T07:54:54;5.03;;;4.53;;
40601;SDS011;26310;50.278;19.032;2022-08-19T07:59:56;8.68;;;6.43;;
40601;SDS011;26310;50.278;19.032;2022-08-19T08:05:00;6.65;;;5.07;;
40601;SDS011;26310;50.278;19.032;2022-08-19T08:10:21;9.40;;;5.32;;
40601;SDS011;26310;50.278;19.032;2022-08-19T08:15:25;28.95;;;7.90;;
40601;SDS011;26310;50.278;19.032;2022-08-19T08:20:29;7.13;;;5.43;;
40601;SDS011;26310;50.278;19.032;2022-08-19T08:25:33;4.93;;;4.20;;
40601;SDS011;26310;50.278;19.032;2022-08-19T08:30:37;6.07;;;4.63;;
40601;SDS011;26310;50.278;19.032;2022-08-19T08:35:45;5.15;;;3.90;;
40601;SDS011;26310;50.278;19.032;2022-08-19T08:40:50;6.13;;;5.35;;
40601;SDS011;26310;50.278;19.032;2022-08-19T08:46:08;4.18;;;3.78;;
40601;SDS011;26310;50.278;19.032;2022-08-19T08:51:34;7.32;;;4.93;;
40601;SDS011;26310;50.278;19.032;2022-08-19T08:56:42;4.63;;;4.13;;
40601;SDS011;26310;50.278;19.032;2022-08-19T09:01:45;4.65;;;4.07;;
40601;SDS011;26310;50.278;19.032;2022-08-19T09:12:06;5.90;;;5.03;;
40601;SDS011;26310;50.278;19.032;2022-08-19T09:17:15;5.85;;;4.07;;
40601;SDS011;26310;50.278;19.032;2022-08-19T09:22:20;5.22;;;4.40;;
40601;SDS011;26310;50.278;19.032;2022-08-19T09:27:26;5.22;;;4.72;;
40601;SDS011;26310;50.278;19.032;2022-08-19T09:32:44;5.63;;;4.40;;
40601;SDS011;26310;50.278;19.032;2022-08-19T09:37:54;8.23;;;5.03;;
40601;SDS011;26310;50.278;19.032;2022-08-19T09:43:00;7.05;;;5.07;;
40601;SDS011;26310;50.278;19.032;2022-08-19T09:48:13;7.03;;;4.93;;
40601;SDS011;26310;50.278;19.032;2022-08-19T09:53:24;6.53;;;5.03;;
40601;SDS011;26310;50.278;19.032;2022-08-19T09:58:27;7.22;;;5.10;;
40601;SDS011;26310;50.278;19.032;2022-08-19T10:03:32;8.32;;;5.50;;
40601;SDS011;26310;50.278;19.032;2022-08-19T10:08:36;7.95;;;5.55;;
40601;SDS011;26310;50.278;19.032;2022-08-19T10:13:51;5.63;;;4.72;;
40601;SDS011;26310;50.278;19.032;2022-08-19T10:18:54;5.72;;;4.57;;
40601;SDS011;26310;50.278;19.032;2022-08-19T10:24:01;5.75;;;4.40;;
40601;SDS011;26310;50.278;19.032;2022-08-19T10:29:05;6.63;;;4.13;;
40601;SDS011;26310;50.278;19.032;2022-08-19T10:34:10;8.27;;;4.70;;
40601;SDS011;26310;50.278;19.032;2022-08-19T10:39:29;7.00;;;4.72;;
40601;SDS011;26310;50.278;19.032;2022-08-19T10:44:33;8.60;;;5.00;;
40601;SDS011;26310;50.278;19.032;2022-08-19T10:49:37;7.70;;;4.82;;
40601;SDS011;26310;50.278;19.032;2022-08-19T10:55:02;10.75;;;4.63;;
40601;SDS011;26310;50.278;19.032;2022-08-19T11:00:29;7.63;;;4.50;;
40601;SDS011;26310;50.278;19.032;2022-08-19T11:05:33;5.30;;;4.07;;
40601;SDS011;26310;50.278;19.032;2022-08-19T11:10:41;5.22;;;3.72;;
40601;SDS011;26310;50.278;19.032;2022-08-19T11:15:56;6.13;;;4.25;;
40601;SDS011;26310;50.278;19.032;2022-08-19T11:21:05;7.18;;;5.20;;
40601;SDS011;26310;50.278;19.032;2022-08-19T11:26:16;5.88;;;4.40;;
40601;SDS011;26310;50.278;19.032;2022-08-19T11:31:20;6.03;;;4.75;;
40601;SDS011;26310;50.278;19.032;2022-08-19T11:36:29;4.97;;;4.25;;
40601;SDS011;26310;50.278;19.032;2022-08-19T11:41:34;6.03;;;4.63;;
40601;SDS011;26310;50.278;19.032;2022-08-19T11:46:37;6.20;;;4.50;;
40601;SDS011;26310;50.278;19.032;2022-08-19T11:51:40;6.03;;;3.90;;
40601;SDS011;26310;50.278;19.032;2022-08-19T11:56:44;5.03;;;4.00;;
40601;SDS011;26310;50.278;19.032;2022-08-19T12:01:49;6.65;;;4.15;;
40601;SDS011;26310;50.278;19.032;2022-08-19T12:06:52;6.43;;;4.32;;
40601;SDS011;26310;50.278;19.032;2022-08-19T12:11:54;6.97;;;4.47;;
40601;SDS011;26310;50.278;19.032;2022-08-19T12:16:57;5.05;;;4.13;;
40601;SDS011;26310;50.278;19.032;2022-08-19T12:22:04;4.85;;;3.88;;
40601;SDS011;26310;50.278;19.032;2022-08-19T12:27:07;5.55;;;3.65;;
40601;SDS011;26310;50.278;19.032;2022-08-19T12:32:13;7.03;;;4.10;;
40601;SDS011;26310;50.278;19.032;2022-08-19T12:37:17;5.38;;;4.18;;
40601;SDS011;26310;50.278;19.032;2022-08-19T12:42:19;5.93;;;3.92;;
40601;SDS011;26310;50.278;19.032;2022-08-19T12:47:24;7.35;;;4.32;;
40601;SDS011;26310;50.278;19.032;2022-08-19T12:52:28;4.45;;;3.78;;
40601;SDS011;26310;50.278;19.032;2022-08-19T12:57:30;4.50;;;3.72;;
40601;SDS011;26310;50.278;19.032;2022-08-19T13:02:36;4.43;;;3.67;;
40601;SDS011;26310;50.278;19.032;2022-08-19T13:07:40;4.57;;;4.05;;
40601;SDS011;26310;50.278;19.032;2022-08-19T13:12:46;4.10;;;3.15;;
40601;SDS011;26310;50.278;19.032;2022-08-19T13:17:51;5.25;;;3.80;;
40601;SDS011;26310;50.278;19.032;2022-08-19T13:22:55;4.65;;;3.42;;
40601;SDS011;26310;50.278;19.032;2022-08-19T13:27:59;5.32;;;3.50;;
40601;SDS011;26310;50.278;19.032;2022-08-19T13:33:02;6.45;;;3.83;;
40601;SDS011;26310;50.278;19.032;2022-08-19T13:38:18;4.57;;;3.33;;
40601;SDS011;26310;50.278;19.032;2022-08-19T13:43:23;4.50;;;3.28;;
40601;SDS011;26310;50.278;19.032;2022-08-19T13:48:28;4.38;;;3.30;;
40601;SDS011;26310;50.278;19.032;2022-08-19T13:53:32;5.15;;;3.97;;
40601;SDS011;26310;50.278;19.032;2022-08-19T13:58:35;4.55;;;3.70;;
40601;SDS011;26310;50.278;19.032;2022-08-19T14:03:38;3.88;;;3.47;;
40601;SDS011;26310;50.278;19.032;2022-08-19T14:08:41;4.15;;;3.22;;
40601;SDS011;26310;50.278;19.032;2022-08-19T14:13:47;5.15;;;3.92;;
40601;SDS011;26310;50.278;19.032;2022-08-19T14:18:50;5.82;;;4.47;;
40601;SDS011;26310;50.278;19.032;2022-08-19T14:23:53;4.80;;;3.53;;
40601;SDS011;26310;50.278;19.032;2022-08-19T14:28:56;4.50;;;3.67;;
40601;SDS011;26310;50.278;19.032;2022-08-19T14:33:59;5.22;;;3.58;;
40601;SDS011;26310;50.278;19.032;2022-08-19T14:39:02;4.75;;;3.78;;
40601;SDS011;26310;50.278;19.032;2022-08-19T14:44:05;4.55;;;3.33;;
40601;SDS011;26310;50.278;19.032;2022-08-19T14:49:08;3.70;;;3.40;;
40601;SDS011;26310;50.278;19.032;2022-08-19T14:54:11;5.43;;;3.85;;
40601;SDS011;26310;50.278;19.032;2022-08-19T14:59:14;4.60;;;3.33;;
40601;SDS011;26310;50.278;19.032;2022-08-19T15:04:17;4.05;;;3.63;;
40601;SDS011;26310;50.278;19.032;2022-08-19T15:09:20;5.07;;;3.50;;
40601;SDS011;26310;50.278;19.032;2022-08-19T15:14:23;5.50;;;3.90;;
40601;SDS011;26310;50.278;19.032;2022-08-19T15:19:25;5.35;;;3.70;;
40601;SDS011;26310;50.278;19.032;2022-08-19T15:24:29;5.63;;;3.78;;
40601;SDS011;26310;50.278;19.032;2022-08-19T15:29:32;6.60;;;3.72;;
40601;SDS011;26310;50.278;19.032;2022-08-19T15:34:35;7.10;;;4.03;;
40601;SDS011;26310;50.278;19.032;2022-08-19T15:39:37;6.00;;;4.20;;
40601;SDS011;26310;50.278;19.032;2022-08-19T15:44:40;6.38;;;4.00;;
40601;SDS011;26310;50.278;19.032;2022-08-19T15:49:43;7.50;;;4.00;;
40601;SDS011;26310;50.278;19.032;2022-08-19T15:54:46;4.82;;;3.58;;
40601;SDS011;26310;50.278;19.032;2022-08-19T15:59:48;5.25;;;4.53;;
40601;SDS011;26310;50.278;19.032;2022-08-19T16:05:15;7.47;;;5.22;;
40601;SDS011;26310;50.278;19.032;2022-08-19T16:10:39;6.90;;;5.32;;
40601;SDS011;26310;50.278;19.032;2022-08-19T16:15:41;7.30;;;5.38;;
40601;SDS011;26310;50.278;19.032;2022-08-19T16:20:45;6.50;;;4.88;;
40601;SDS011;26310;50.278;19.032;2022-08-19T16:25:49;7.90;;;6.10;;
40601;SDS011;26310;50.278;19.032;2022-08-19T16:30:51;12.68;;;8.88;;
40601;SDS011;26310;50.278;19.032;2022-08-19T16:35:54;51.42;;;33.78;;
40601;SDS011;26310;50.278;19.032;2022-08-19T16:41:07;51.53;;;33.67;;
40601;SDS011;26310;50.278;19.032;2022-08-19T16:46:10;40.10;;;24.70;;
40601;SDS011;26310;50.278;19.032;2022-08-19T16:51:19;30.90;;;20.55;;
40601;SDS011;26310;50.278;19.032;2022-08-19T16:56:23;29.80;;;19.50;;
40601;SDS011;26310;50.278;19.032;2022-08-19T17:01:26;26.73;;;17.40;;
40601;SDS011;26310;50.278;19.032;2022-08-19T17:06:30;17.67;;;12.38;;
40601;SDS011;26310;50.278;19.032;2022-08-19T17:11:33;15.38;;;8.88;;
40601;SDS011;26310;50.278;19.032;2022-08-19T17:16:36;11.88;;;8.50;;
40601;SDS011;26310;50.278;19.032;2022-08-19T17:21:39;9.65;;;7.43;;
40601;SDS011;26310;50.278;19.032;2022-08-19T17:26:42;9.60;;;6.65;;
40601;SDS011;26310;50.278;19.032;2022-08-19T17:31:45;12.82;;;7.85;;
40601;SDS011;26310;50.278;19.032;2022-08-19T17:36:48;11.77;;;8.07;;
40601;SDS011;26310;50.278;19.032;2022-08-19T17:41:50;12.55;;;7.28;;
40601;SDS011;26310;50.278;19.032;2022-08-19T17:46:53;10.05;;;5.70;;
40601;SDS011;26310;50.278;19.032;2022-08-19T17:51:56;12.43;;;4.97;;
40601;SDS011;26310;50.278;19.032;2022-08-19T17:57:00;10.90;;;5.57;;
40601;SDS011;26310;50.278;19.032;2022-08-19T18:02:03;8.68;;;4.47;;
40601;SDS011;26310;50.278;19.032;2022-08-19T18:07:07;13.68;;;5.88;;
40601;SDS011;26310;50.278;19.032;2022-08-19T18:12:11;11.50;;;5.57;;
40601;SDS011;26310;50.278;19.032;2022-08-19T18:17:16;17.38;;;6.30;;
40601;SDS011;26310;50.278;19.032;2022-08-19T18:27:25;7.82;;;4.43;;
40601;SDS011;26310;50.278;19.032;2022-08-19T18:32:29;8.27;;;4.60;;
40601;SDS011;26310;50.278;19.032;2022-08-19T18:37:38;8.27;;;4.60;;
40601;SDS011;26310;50.278;19.032;2022-08-19T18:42:42;12.77;;;5.05;;
40601;SDS011;26310;50.278;19.032;2022-08-19T18:48:04;14.02;;;5.38;;
40601;SDS011;26310;50.278;19.032;2022-08-19T18:53:30;12.20;;;4.68;;
40601;SDS011;26310;50.278;19.032;2022-08-19T18:58:35;8.68;;;4.85;;
40601;SDS011;26310;50.278;19.032;2022-08-19T19:03:39;9.48;;;5.13;;
40601;SDS011;26310;50.278;19.032;2022-08-19T19:08:53;9.00;;;4.57;;
40601;SDS011;26310;50.278;19.032;2022-08-19T19:13:56;9.23;;;4.72;;
40601;SDS011;26310;50.278;19.032;2022-08-19T19:19:00;10.70;;;4.60;;
40601;SDS011;26310;50.278;19.032;2022-08-19T19:24:03;7.47;;;4.68;;
40601;SDS011;26310;50.278;19.032;2022-08-19T19:29:06;7.70;;;4.50;;
40601;SDS011;26310;50.278;19.032;2022-08-19T19:34:13;12.73;;;5.38;;
40601;SDS011;26310;50.278;19.032;2022-08-19T19:39:30;8.88;;;4.97;;
40601;SDS011;26310;50.278;19.032;2022-08-19T19:44:48;9.23;;;5.63;;
40601;SDS011;26310;50.278;19.032;2022-08-19T19:49:52;7.53;;;4.65;;
40601;SDS011;26310;50.278;19.032;2022-08-19T19:55:16;12.43;;;5.28;;
40601;SDS011;26310;50.278;19.032;2022-08-19T20:00:19;7.20;;;4.85;;
40601;SDS011;26310;50.278;19.032;2022-08-19T20:05:22;10.10;;;5.93;;
40601;SDS011;26310;50.278;19.032;2022-08-19T20:10:25;9.55;;;5.28;;
40601;SDS011;26310;50.278;19.032;2022-08-19T20:15:28;7.60;;;5.40;;
40601;SDS011;26310;50.278;19.032;2022-08-19T20:20:32;9.98;;;6.60;;
40601;SDS011;26310;50.278;19.032;2022-08-19T20:25:36;14.70;;;6.70;;
40601;SDS011;26310;50.278;19.032;2022-08-19T20:30:40;11.18;;;7.15;;
40601;SDS011;26310;50.278;19.032;2022-08-19T20:35:48;9.07;;;7.15;;
40601;SDS011;26310;50.278;19.032;2022-08-19T20:40:51;11.02;;;7.53;;
40601;SDS011;26310;50.278;19.032;2022-08-19T20:45:53;19.77;;;9.20;;
40601;SDS011;26310;50.278;19.032;2022-08-19T20:50:56;16.48;;;10.20;;
40601;SDS011;26310;50.278;19.032;2022-08-19T20:55:59;16.73;;;9.27;;
40601;SDS011;26310;50.278;19.032;2022-08-19T21:01:04;13.20;;;9.05;;
40601;SDS011;26310;50.278;19.032;2022-08-19T21:06:11;16.75;;;9.68;;
40601;SDS011;26310;50.278;19.032;2022-08-19T21:11:14;14.35;;;8.73;;
40601;SDS011;26310;50.278;19.032;2022-08-19T21:16:21;14.43;;;9.88;;
40601;SDS011;26310;50.278;19.032;2022-08-19T21:21:24;18.00;;;10.23;;
40601;SDS011;26310;50.278;19.032;2022-08-19T21:26:27;16.58;;;9.95;;
40601;SDS011;26310;50.278;19.032;2022-08-19T21:31:29;18.52;;;10.13;;
40601;SDS011;26310;50.278;19.032;2022-08-19T21:36:32;16.75;;;9.82;;
40601;SDS011;26310;50.278;19.032;2022-08-19T21:41:35;18.75;;;9.80;;
40601;SDS011;26310;50.278;19.032;2022-08-19T21:46:43;15.80;;;9.85;;
40601;SDS011;26310;50.278;19.032;2022-08-19T21:51:51;17.83;;;10.32;;
40601;SDS011;26310;50.278;19.032;2022-08-19T21:56:53;14.50;;;8.82;;
40601;SDS011;26310;50.278;19.032;2022-08-19T22:01:56;15.50;;;8.68;;
40601;SDS011;26310;50.278;19.032;2022-08-19T22:07:20;11.55;;;8.15;;
40601;SDS011;26310;50.278;19.032;2022-08-19T22:12:25;14.50;;;7.80;;
40601;SDS011;26310;50.278;19.032;2022-08-19T22:17:29;14.68;;;8.38;;
40601;SDS011;26310;50.278;19.032;2022-08-19T22:22:33;11.65;;;7.45;;
40601;SDS011;26310;50.278;19.032;2022-08-19T22:27:37;11.95;;;7.72;;
40601;SDS011;26310;50.278;19.032;2022-08-19T22:32:45;15.18;;;8.07;;
40601;SDS011;26310;50.278;19.032;2022-08-19T22:37:57;12.23;;;7.82;;
40601;SDS011;26310;50.278;19.032;2022-08-19T22:43:02;10.75;;;7.35;;
40601;SDS011;26310;50.278;19.032;2022-08-19T22:48:09;12.07;;;8.40;;
40601;SDS011;26310;50.278;19.032;2022-08-19T22:53:13;14.52;;;7.45;;
40601;SDS011;26310;50.278;19.032;2022-08-19T22:58:17;12.93;;;7.85;;
40601;SDS011;26310;50.278;19.032;2022-08-19T23:03:29;10.90;;;8.35;;
40601;SDS011;26310;50.278;19.032;2022-08-19T23:08:32;12.80;;;8.45;;
40601;SDS011;26310;50.278;19.032;2022-08-19T23:13:35;13.10;;;9.27;;
40601;SDS011;26310;50.278;19.032;2022-08-19T23:18:40;14.07;;;9.00;;
40601;SDS011;26310;50.278;19.032;2022-08-19T23:23:42;16.35;;;8.80;;
40601;SDS011;26310;50.278;19.032;2022-08-19T23:28:45;14.05;;;8.95;;
40601;SDS011;26310;50.278;19.032;2022-08-19T23:34:06;13.30;;;9.65;;
40601;SDS011;26310;50.278;19.032;2022-08-19T23:39:09;13.05;;;9.25;;
40601;SDS011;26310;50.278;19.032;2022-08-19T23:44:12;15.98;;;10.32;;
40601;SDS011;26310;50.278;19.032;2022-08-19T23:49:16;13.07;;;9.18;;
40601;SDS011;26310;50.278;19.032;2022-08-19T23:54:18;13.60;;;9.48;;
40601;SDS011;26310;50.278;19.032;2022-08-19T23:59:21;14.95;;;10.82;;
